sensor_id;sensor_type;location;lat;lon;timestamp;temperature;humidity
5419;DHT22;2732;52.092;11.556;2024-03-22T00:02:21;7.10;99.90
5419;DHT22;2732;52.092;11.556;2024-03-22T00:07:21;7.00;99.90
5419;DHT22;2732;52.092;11.556;2024-03-22T00:12:22;7.00;99.90
5419;DHT22;2732;52.092;11.556;2024-03-22T00:17:23;7.00;99.90
5419;DHT22;2732;52.092;11.556;2024-03-22T00:22:23;7.00;99.90
5419;DHT22;2732;52.092;11.556;2024-03-22T00:27:24;7.00;99.90
5419;DHT22;2732;52.092;11.556;2024-03-22T00:32:24;7.00;99.90
5419;DHT22;2732;52.092;11.556;2024-03-22T00:37:25;7.00;99.90
5419;DHT22;2732;52.092;11.556;2024-03-22T00:42:25;6.90;99.90
5419;DHT22;2732;52.092;11.556;2024-03-22T00:47:26;6.90;99.90
5419;DHT22;2732;52.092;11.556;2024-03-22T00:52:26;6.90;99.90
5419;DHT22;2732;52.092;11.556;2024-03-22T00:57:27;6.90;99.90
5419;DHT22;2732;52.092;11.556;2024-03-22T01:02:28;6.90;99.90
5419;DHT22;2732;52.092;11.556;2024-03-22T01:07:28;6.90;99.90
5419;DHT22;2732;52.092;11.556;2024-03-22T01:12:29;6.90;99.90
5419;DHT22;2732;52.092;11.556;2024-03-22T01:17:30;6.80;99.90
5419;DHT22;2732;52.092;11.556;2024-03-22T01:22:30;6.80;99.90
5419;DHT22;2732;52.092;11.556;2024-03-22T01:27:31;6.80;99.90
5419;DHT22;2732;52.092;11.556;2024-03-22T01:32:31;6.70;99.90
5419;DHT22;2732;52.092;11.556;2024-03-22T01:37:32;6.70;99.90
5419;DHT22;2732;52.092;11.556;2024-03-22T01:42:33;6.70;99.90
5419;DHT22;2732;52.092;11.556;2024-03-22T01:47:33;6.70;99.90
5419;DHT22;2732;52.092;11.556;2024-03-22T01:52:34;6.70;99.90
5419;DHT22;2732;52.092;11.556;2024-03-22T01:57:35;6.60;99.90
5419;DHT22;2732;52.092;11.556;2024-03-22T02:02:36;6.60;99.90
5419;DHT22;2732;52.092;11.556;2024-03-22T02:07:37;6.70;99.90
5419;DHT22;2732;52.092;11.556;2024-03-22T02:12:41;6.70;99.90
5419;DHT22;2732;52.092;11.556;2024-03-22T02:17:44;6.70;99.90
5419;DHT22;2732;52.092;11.556;2024-03-22T02:22:48;6.70;99.90
5419;DHT22;2732;52.092;11.556;2024-03-22T02:27:48;6.70;99.90
5419;DHT22;2732;52.092;11.556;2024-03-22T02:32:50;6.70;99.90
5419;DHT22;2732;52.092;11.556;2024-03-22T02:37:51;6.70;99.90
5419;DHT22;2732;52.092;11.556;2024-03-22T02:42:51;6.80;99.90
5419;DHT22;2732;52.092;11.556;2024-03-22T02:47:52;6.80;99.90
5419;DHT22;2732;52.092;11.556;2024-03-22T02:52:53;6.80;99.90
5419;DHT22;2732;52.092;11.556;2024-03-22T02:57:53;6.80;99.90
5419;DHT22;2732;52.092;11.556;2024-03-22T03:02:56;6.80;99.90
5419;DHT22;2732;52.092;11.556;2024-03-22T03:07:56;6.80;99.90
5419;DHT22;2732;52.092;11.556;2024-03-22T03:12:57;6.80;99.90
5419;DHT22;2732;52.092;11.556;2024-03-22T03:17:58;6.80;99.90
5419;DHT22;2732;52.092;11.556;2024-03-22T03:22:58;6.80;99.90
5419;DHT22;2732;52.092;11.556;2024-03-22T03:28:00;6.90;99.90
5419;DHT22;2732;52.092;11.556;2024-03-22T03:33:01;6.90;99.90
5419;DHT22;2732;52.092;11.556;2024-03-22T03:38:01;6.90;99.90
5419;DHT22;2732;52.092;11.556;2024-03-22T03:43:02;6.90;99.90
5419;DHT22;2732;52.092;11.556;2024-03-22T03:48:03;7.00;99.90
5419;DHT22;2732;52.092;11.556;2024-03-22T03:53:04;7.00;99.90
5419;DHT22;2732;52.092;11.556;2024-03-22T03:58:04;7.00;99.90
5419;DHT22;2732;52.092;11.556;2024-03-22T04:03:05;7.00;99.90
5419;DHT22;2732;52.092;11.556;2024-03-22T04:08:06;7.00;99.90
5419;DHT22;2732;52.092;11.556;2024-03-22T04:13:06;7.10;99.90
5419;DHT22;2732;52.092;11.556;2024-03-22T04:18:07;7.10;99.90
5419;DHT22;2732;52.092;11.556;2024-03-22T04:23:07;7.10;99.90
5419;DHT22;2732;52.092;11.556;2024-03-22T04:28:08;7.10;99.90
5419;DHT22;2732;52.092;11.556;2024-03-22T04:33:08;7.10;99.90
5419;DHT22;2732;52.092;11.556;2024-03-22T04:38:09;7.10;99.90
5419;DHT22;2732;52.092;11.556;2024-03-22T04:43:09;7.20;99.90
5419;DHT22;2732;52.092;11.556;2024-03-22T04:48:12;7.20;99.90
5419;DHT22;2732;52.092;11.556;2024-03-22T04:53:13;7.20;99.90
5419;DHT22;2732;52.092;11.556;2024-03-22T04:58:14;7.20;99.90
5419;DHT22;2732;52.092;11.556;2024-03-22T05:03:16;7.20;99.90
5419;DHT22;2732;52.092;11.556;2024-03-22T05:08:16;7.30;99.90
5419;DHT22;2732;52.092;11.556;2024-03-22T05:13:17;7.30;99.90
5419;DHT22;2732;52.092;11.556;2024-03-22T05:18:18;7.30;99.90
5419;DHT22;2732;52.092;11.556;2024-03-22T05:23:18;7.30;99.90
5419;DHT22;2732;52.092;11.556;2024-03-22T05:28:19;7.30;99.90
5419;DHT22;2732;52.092;11.556;2024-03-22T05:33:19;7.40;99.90
5419;DHT22;2732;52.092;11.556;2024-03-22T05:38:20;7.40;99.90
5419;DHT22;2732;52.092;11.556;2024-03-22T05:43:20;7.40;99.90
5419;DHT22;2732;52.092;11.556;2024-03-22T05:48:21;7.50;99.90
5419;DHT22;2732;52.092;11.556;2024-03-22T05:53:21;7.50;99.90
5419;DHT22;2732;52.092;11.556;2024-03-22T05:58:22;7.60;99.90
5419;DHT22;2732;52.092;11.556;2024-03-22T06:03:23;7.60;99.90
5419;DHT22;2732;52.092;11.556;2024-03-22T06:08:23;7.70;99.90
5419;DHT22;2732;52.092;11.556;2024-03-22T06:13:25;7.80;99.90
5419;DHT22;2732;52.092;11.556;2024-03-22T06:18:26;7.90;99.90
5419;DHT22;2732;52.092;11.556;2024-03-22T06:23:26;7.90;99.90
5419;DHT22;2732;52.092;11.556;2024-03-22T06:28:28;7.90;99.90
5419;DHT22;2732;52.092;11.556;2024-03-22T06:33:29;8.00;99.90
5419;DHT22;2732;52.092;11.556;2024-03-22T06:38:29;8.10;99.90
5419;DHT22;2732;52.092;11.556;2024-03-22T06:43:30;8.10;99.90
5419;DHT22;2732;52.092;11.556;2024-03-22T06:48:30;8.20;99.90
5419;DHT22;2732;52.092;11.556;2024-03-22T06:53:31;8.30;99.90
5419;DHT22;2732;52.092;11.556;2024-03-22T06:58:31;8.40;99.90
5419;DHT22;2732;52.092;11.556;2024-03-22T07:03:32;8.40;99.90
5419;DHT22;2732;52.092;11.556;2024-03-22T07:08:33;8.50;99.90
5419;DHT22;2732;52.092;11.556;2024-03-22T07:13:35;8.70;99.90
5419;DHT22;2732;52.092;11.556;2024-03-22T07:18:35;8.80;99.90
5419;DHT22;2732;52.092;11.556;2024-03-22T07:23:37;8.90;99.90
5419;DHT22;2732;52.092;11.556;2024-03-22T07:28:37;9.00;99.90
5419;DHT22;2732;52.092;11.556;2024-03-22T07:33:38;9.00;99.90
5419;DHT22;2732;52.092;11.556;2024-03-22T07:38:39;9.10;99.90
5419;DHT22;2732;52.092;11.556;2024-03-22T07:43:43;9.20;99.90
5419;DHT22;2732;52.092;11.556;2024-03-22T07:48:46;9.30;99.90
5419;DHT22;2732;52.092;11.556;2024-03-22T07:53:47;9.40;99.90
5419;DHT22;2732;52.092;11.556;2024-03-22T07:58:47;9.50;99.90
5419;DHT22;2732;52.092;11.556;2024-03-22T08:03:49;9.70;99.90
5419;DHT22;2732;52.092;11.556;2024-03-22T08:08:50;9.80;99.90
5419;DHT22;2732;52.092;11.556;2024-03-22T08:13:50;10.00;99.90
5419;DHT22;2732;52.092;11.556;2024-03-22T08:18:51;10.10;99.90
5419;DHT22;2732;52.092;11.556;2024-03-22T08:23:52;10.40;99.90
5419;DHT22;2732;52.092;11.556;2024-03-22T08:28:53;10.60;99.90
5419;DHT22;2732;52.092;11.556;2024-03-22T08:33:53;10.90;99.90
5419;DHT22;2732;52.092;11.556;2024-03-22T08:38:56;11.20;99.90
5419;DHT22;2732;52.092;11.556;2024-03-22T08:43:56;11.50;99.90
5419;DHT22;2732;52.092;11.556;2024-03-22T08:48:57;11.90;99.90
5419;DHT22;2732;52.092;11.556;2024-03-22T08:53:58;12.30;99.90
5419;DHT22;2732;52.092;11.556;2024-03-22T08:58:59;12.70;99.90
5419;DHT22;2732;52.092;11.556;2024-03-22T09:03:59;13.10;99.90
5419;DHT22;2732;52.092;11.556;2024-03-22T09:09:00;13.10;99.90
5419;DHT22;2732;52.092;11.556;2024-03-22T09:14:01;13.20;99.90
5419;DHT22;2732;52.092;11.556;2024-03-22T09:19:01;13.10;99.90
5419;DHT22;2732;52.092;11.556;2024-03-22T09:24:02;13.10;99.90
5419;DHT22;2732;52.092;11.556;2024-03-22T09:29:05;13.30;99.90
5419;DHT22;2732;52.092;11.556;2024-03-22T09:34:06;13.50;99.90
5419;DHT22;2732;52.092;11.556;2024-03-22T09:39:06;13.70;99.90
5419;DHT22;2732;52.092;11.556;2024-03-22T09:44:12;13.90;99.90
5419;DHT22;2732;52.092;11.556;2024-03-22T09:49:14;14.10;99.90
5419;DHT22;2732;52.092;11.556;2024-03-22T09:54:15;14.30;99.90
5419;DHT22;2732;52.092;11.556;2024-03-22T09:59:17;14.30;99.90
5419;DHT22;2732;52.092;11.556;2024-03-22T10:04:18;14.40;99.90
5419;DHT22;2732;52.092;11.556;2024-03-22T10:09:27;14.40;99.90
5419;DHT22;2732;52.092;11.556;2024-03-22T10:14:29;14.50;99.90
5419;DHT22;2732;52.092;11.556;2024-03-22T10:19:31;14.40;99.90
5419;DHT22;2732;52.092;11.556;2024-03-22T10:24:32;14.30;99.90
5419;DHT22;2732;52.092;11.556;2024-03-22T10:29:36;14.30;99.90
5419;DHT22;2732;52.092;11.556;2024-03-22T10:34:37;14.20;99.90
5419;DHT22;2732;52.092;11.556;2024-03-22T10:39:42;14.20;99.90
5419;DHT22;2732;52.092;11.556;2024-03-22T10:44:44;14.10;99.90
5419;DHT22;2732;52.092;11.556;2024-03-22T10:49:49;14.10;99.90
5419;DHT22;2732;52.092;11.556;2024-03-22T10:54:52;14.10;99.90
5419;DHT22;2732;52.092;11.556;2024-03-22T10:59:56;14.10;99.90
5419;DHT22;2732;52.092;11.556;2024-03-22T11:04:57;14.10;99.90
5419;DHT22;2732;52.092;11.556;2024-03-22T11:10:01;14.10;99.90
5419;DHT22;2732;52.092;11.556;2024-03-22T11:15:04;14.10;99.90
5419;DHT22;2732;52.092;11.556;2024-03-22T11:20:05;14.10;99.90
5419;DHT22;2732;52.092;11.556;2024-03-22T11:25:06;14.10;99.90
5419;DHT22;2732;52.092;11.556;2024-03-22T11:30:07;14.10;99.90
5419;DHT22;2732;52.092;11.556;2024-03-22T11:35:12;14.10;99.90
5419;DHT22;2732;52.092;11.556;2024-03-22T11:40:13;14.00;99.90
5419;DHT22;2732;52.092;11.556;2024-03-22T11:45:16;14.00;99.90
5419;DHT22;2732;52.092;11.556;2024-03-22T11:50:20;14.00;99.90
5419;DHT22;2732;52.092;11.556;2024-03-22T11:55:21;14.00;99.90
5419;DHT22;2732;52.092;11.556;2024-03-22T12:00:22;13.90;99.90
5419;DHT22;2732;52.092;11.556;2024-03-22T12:05:23;13.90;99.90
5419;DHT22;2732;52.092;11.556;2024-03-22T12:10:25;13.90;99.90
5419;DHT22;2732;52.092;11.556;2024-03-22T12:15:25;13.90;99.90
5419;DHT22;2732;52.092;11.556;2024-03-22T12:20:26;13.90;99.90
5419;DHT22;2732;52.092;11.556;2024-03-22T12:25:27;13.90;99.90
5419;DHT22;2732;52.092;11.556;2024-03-22T12:30:28;13.90;99.90
5419;DHT22;2732;52.092;11.556;2024-03-22T12:35:28;13.80;99.90
5419;DHT22;2732;52.092;11.556;2024-03-22T12:40:33;13.70;99.90
5419;DHT22;2732;52.092;11.556;2024-03-22T12:45:34;13.70;99.90
5419;DHT22;2732;52.092;11.556;2024-03-22T12:50:35;13.70;99.90
5419;DHT22;2732;52.092;11.556;2024-03-22T12:55:35;13.60;99.90
5419;DHT22;2732;52.092;11.556;2024-03-22T13:00:36;13.60;99.90
5419;DHT22;2732;52.092;11.556;2024-03-22T13:05:37;13.60;99.90
5419;DHT22;2732;52.092;11.556;2024-03-22T13:10:37;13.60;99.90
5419;DHT22;2732;52.092;11.556;2024-03-22T13:15:43;13.70;99.90
5419;DHT22;2732;52.092;11.556;2024-03-22T13:20:43;13.80;99.90
5419;DHT22;2732;52.092;11.556;2024-03-22T13:25:47;13.90;99.90
5419;DHT22;2732;52.092;11.556;2024-03-22T13:30:48;13.90;99.90
5419;DHT22;2732;52.092;11.556;2024-03-22T13:35:49;13.90;99.90
5419;DHT22;2732;52.092;11.556;2024-03-22T13:40:55;13.90;99.90
5419;DHT22;2732;52.092;11.556;2024-03-22T13:45:56;13.80;99.90
5419;DHT22;2732;52.092;11.556;2024-03-22T13:50:58;13.80;99.90
5419;DHT22;2732;52.092;11.556;2024-03-22T13:55:58;13.70;99.90
5419;DHT22;2732;52.092;11.556;2024-03-22T14:01:00;13.70;99.90
5419;DHT22;2732;52.092;11.556;2024-03-22T14:06:01;13.70;99.90
5419;DHT22;2732;52.092;11.556;2024-03-22T14:11:03;13.80;99.90
5419;DHT22;2732;52.092;11.556;2024-03-22T14:16:03;13.80;99.90
5419;DHT22;2732;52.092;11.556;2024-03-22T14:21:05;13.80;99.90
5419;DHT22;2732;52.092;11.556;2024-03-22T14:26:06;13.70;99.90
5419;DHT22;2732;52.092;11.556;2024-03-22T14:31:08;13.70;99.90
5419;DHT22;2732;52.092;11.556;2024-03-22T14:36:09;13.70;99.90
5419;DHT22;2732;52.092;11.556;2024-03-22T14:41:11;13.70;99.90
5419;DHT22;2732;52.092;11.556;2024-03-22T14:46:11;13.70;99.90
5419;DHT22;2732;52.092;11.556;2024-03-22T14:51:12;13.60;99.90
5419;DHT22;2732;52.092;11.556;2024-03-22T14:56:12;13.60;99.90
5419;DHT22;2732;52.092;11.556;2024-03-22T15:01:14;13.60;99.90
5419;DHT22;2732;52.092;11.556;2024-03-22T15:06:14;13.60;99.90
5419;DHT22;2732;52.092;11.556;2024-03-22T15:11:15;13.50;99.90
5419;DHT22;2732;52.092;11.556;2024-03-22T15:16:16;13.50;99.90
5419;DHT22;2732;52.092;11.556;2024-03-22T15:21:17;13.50;99.90
5419;DHT22;2732;52.092;11.556;2024-03-22T15:26:20;13.50;99.90
5419;DHT22;2732;52.092;11.556;2024-03-22T15:31:21;13.40;99.90
5419;DHT22;2732;52.092;11.556;2024-03-22T15:36:23;13.40;99.90
5419;DHT22;2732;52.092;11.556;2024-03-22T15:41:25;13.30;99.90
5419;DHT22;2732;52.092;11.556;2024-03-22T15:46:25;13.30;99.90
5419;DHT22;2732;52.092;11.556;2024-03-22T15:51:26;13.30;99.90
5419;DHT22;2732;52.092;11.556;2024-03-22T15:56:27;13.20;99.90
5419;DHT22;2732;52.092;11.556;2024-03-22T16:01:27;13.10;99.90
5419;DHT22;2732;52.092;11.556;2024-03-22T16:06:28;13.00;99.90
5419;DHT22;2732;52.092;11.556;2024-03-22T16:11:28;12.90;99.90
5419;DHT22;2732;52.092;11.556;2024-03-22T16:16:29;12.90;99.90
5419;DHT22;2732;52.092;11.556;2024-03-22T16:21:29;12.80;99.90
5419;DHT22;2732;52.092;11.556;2024-03-22T16:26:30;12.70;99.90
5419;DHT22;2732;52.092;11.556;2024-03-22T16:31:31;12.70;99.90
5419;DHT22;2732;52.092;11.556;2024-03-22T16:36:32;12.60;99.90
5419;DHT22;2732;52.092;11.556;2024-03-22T16:41:33;12.60;99.90
5419;DHT22;2732;52.092;11.556;2024-03-22T16:46:34;12.50;99.90
5419;DHT22;2732;52.092;11.556;2024-03-22T16:51:35;12.40;99.90
5419;DHT22;2732;52.092;11.556;2024-03-22T16:56:36;12.40;99.90
5419;DHT22;2732;52.092;11.556;2024-03-22T17:01:36;12.30;99.90
5419;DHT22;2732;52.092;11.556;2024-03-22T17:06:37;12.20;99.90
5419;DHT22;2732;52.092;11.556;2024-03-22T17:11:39;12.20;99.90
5419;DHT22;2732;52.092;11.556;2024-03-22T17:16:40;12.10;99.90
5419;DHT22;2732;52.092;11.556;2024-03-22T17:21:40;12.10;99.90
5419;DHT22;2732;52.092;11.556;2024-03-22T17:26:42;12.00;99.90
5419;DHT22;2732;52.092;11.556;2024-03-22T17:31:43;12.00;99.90
5419;DHT22;2732;52.092;11.556;2024-03-22T17:36:44;11.90;99.90
5419;DHT22;2732;52.092;11.556;2024-03-22T17:41:45;11.90;99.90
5419;DHT22;2732;52.092;11.556;2024-03-22T17:46:46;11.80;99.90
5419;DHT22;2732;52.092;11.556;2024-03-22T17:51:46;11.70;99.90
5419;DHT22;2732;52.092;11.556;2024-03-22T17:56:49;11.70;99.90
5419;DHT22;2732;52.092;11.556;2024-03-22T18:01:59;11.70;99.90
5419;DHT22;2732;52.092;11.556;2024-03-22T18:06:59;11.60;99.90
5419;DHT22;2732;52.092;11.556;2024-03-22T18:12:00;11.60;99.90
5419;DHT22;2732;52.092;11.556;2024-03-22T18:17:00;11.50;99.90
5419;DHT22;2732;52.092;11.556;2024-03-22T18:22:04;11.50;99.90
5419;DHT22;2732;52.092;11.556;2024-03-22T18:27:04;11.40;99.90
5419;DHT22;2732;52.092;11.556;2024-03-22T18:32:05;11.40;99.90
5419;DHT22;2732;52.092;11.556;2024-03-22T18:37:06;11.40;99.90
5419;DHT22;2732;52.092;11.556;2024-03-22T18:42:06;11.40;99.90
5419;DHT22;2732;52.092;11.556;2024-03-22T18:47:08;11.30;99.90
5419;DHT22;2732;52.092;11.556;2024-03-22T18:52:09;11.30;99.90
5419;DHT22;2732;52.092;11.556;2024-03-22T18:57:10;11.30;99.90
5419;DHT22;2732;52.092;11.556;2024-03-22T19:02:10;11.20;99.90
5419;DHT22;2732;52.092;11.556;2024-03-22T19:07:11;11.10;99.90
5419;DHT22;2732;52.092;11.556;2024-03-22T19:12:12;11.10;99.90
5419;DHT22;2732;52.092;11.556;2024-03-22T19:17:14;11.10;99.90
5419;DHT22;2732;52.092;11.556;2024-03-22T19:22:14;11.10;99.90
5419;DHT22;2732;52.092;11.556;2024-03-22T19:27:15;11.00;99.90
5419;DHT22;2732;52.092;11.556;2024-03-22T19:32:15;11.00;99.90
5419;DHT22;2732;52.092;11.556;2024-03-22T19:37:16;10.90;99.90
5419;DHT22;2732;52.092;11.556;2024-03-22T19:42:17;10.90;99.90
5419;DHT22;2732;52.092;11.556;2024-03-22T19:47:17;10.90;99.90
5419;DHT22;2732;52.092;11.556;2024-03-22T19:52:18;10.80;99.90
5419;DHT22;2732;52.092;11.556;2024-03-22T19:57:19;10.80;99.90
5419;DHT22;2732;52.092;11.556;2024-03-22T20:02:19;10.80;99.90
5419;DHT22;2732;52.092;11.556;2024-03-22T20:07:20;10.80;99.90
5419;DHT22;2732;52.092;11.556;2024-03-22T20:12:21;10.70;99.90
5419;DHT22;2732;52.092;11.556;2024-03-22T20:17:21;10.70;99.90
5419;DHT22;2732;52.092;11.556;2024-03-22T20:22:22;10.70;99.90
5419;DHT22;2732;52.092;11.556;2024-03-22T20:27:23;10.60;99.90
5419;DHT22;2732;52.092;11.556;2024-03-22T20:32:23;10.60;99.90
5419;DHT22;2732;52.092;11.556;2024-03-22T20:37:24;10.60;99.90
